createdAt,value
2017-06-09T00:00:50.165Z,0
2017-06-09T00:01:51.432Z,0
2017-06-09T00:02:52.736Z,0
2017-06-09T00:03:53.988Z,0
2017-06-09T00:04:55.360Z,0
2017-06-09T00:05:56.608Z,0
2017-06-09T00:06:57.857Z,0
2017-06-09T00:07:59.092Z,0
2017-06-09T00:09:00.331Z,0
2017-06-09T00:10:01.592Z,0
2017-06-09T00:11:02.890Z,0
2017-06-09T00:12:04.386Z,0
2017-06-09T00:13:05.648Z,0
2017-06-09T00:14:06.874Z,0
2017-06-09T00:15:08.123Z,0
2017-06-09T00:16:09.417Z,0
2017-06-09T00:17:10.615Z,0
2017-06-09T00:18:11.881Z,0
2017-06-09T00:19:13.115Z,0
2017-06-09T00:20:14.346Z,0
2017-06-09T00:21:15.606Z,0
2017-06-09T00:22:16.960Z,0
2017-06-09T00:23:18.272Z,0
2017-06-09T00:24:19.520Z,0
2017-06-09T00:25:20.763Z,0
2017-06-09T00:26:22.035Z,0
2017-06-09T00:27:23.295Z,0
2017-06-09T00:28:24.535Z,0
2017-06-09T00:29:25.825Z,0
2017-06-09T00:30:27.072Z,0
2017-06-09T00:31:28.336Z,0
2017-06-09T00:32:29.563Z,0
2017-06-09T00:33:30.808Z,0
2017-06-09T00:34:32.092Z,0
2017-06-09T00:35:33.394Z,0
2017-06-09T00:36:34.599Z,0
2017-06-09T00:37:35.845Z,0
2017-06-09T00:38:37.085Z,0
2017-06-09T00:39:38.341Z,0
2017-06-09T00:40:39.642Z,0
2017-06-09T00:41:40.844Z,0
2017-06-09T00:42:42.201Z,0
2017-06-09T00:43:43.490Z,0
2017-06-09T00:44:44.742Z,0
2017-06-09T00:45:45.990Z,0
2017-06-09T00:46:47.227Z,0
2017-06-09T00:47:48.489Z,0
2017-06-09T00:48:49.737Z,0
2017-06-09T00:49:50.975Z,0
2017-06-09T00:50:52.221Z,0
2017-06-09T00:51:53.470Z,0
2017-06-09T00:52:54.722Z,0
2017-06-09T00:53:55.976Z,0
2017-06-09T00:54:57.269Z,0
2017-06-09T00:55:58.518Z,0
2017-06-09T00:56:59.767Z,0
2017-06-09T00:58:01.003Z,0
2017-06-09T00:59:02.262Z,0
2017-06-09T01:00:03.539Z,0
2017-06-09T01:01:04.796Z,0
2017-06-09T01:02:06.085Z,0
2017-06-09T01:03:07.334Z,0
2017-06-09T01:04:08.583Z,0
2017-06-09T01:05:09.890Z,0
2017-06-09T01:06:11.122Z,0
2017-06-09T01:07:12.502Z,0
2017-06-09T01:08:13.760Z,0
2017-06-09T01:09:14.988Z,0
2017-06-09T01:10:16.239Z,0
2017-06-09T01:11:17.480Z,0
2017-06-09T01:12:18.761Z,0
2017-06-09T01:13:20.074Z,0
2017-06-09T01:14:21.312Z,0
2017-06-09T01:15:22.556Z,0
2017-06-09T01:16:23.799Z,0
2017-06-09T01:17:25.052Z,0
2017-06-09T01:18:26.279Z,0
2017-06-09T01:19:27.550Z,0
2017-06-09T01:20:28.792Z,0
2017-06-09T01:21:30.104Z,0
2017-06-09T01:22:31.327Z,0
2017-06-09T01:23:32.575Z,0
2017-06-09T01:24:33.860Z,0
2017-06-09T01:25:35.071Z,0
2017-06-09T01:26:36.327Z,0
2017-06-09T01:27:37.564Z,0
2017-06-09T01:28:38.813Z,0
2017-06-09T01:29:40.057Z,0
2017-06-09T01:30:41.322Z,0
2017-06-09T01:31:42.557Z,0
2017-06-09T01:32:43.832Z,0
2017-06-09T01:33:45.070Z,0
2017-06-09T01:34:46.334Z,0
2017-06-09T01:35:47.562Z,0
2017-06-09T01:36:48.842Z,0
2017-06-09T01:37:50.075Z,0
2017-06-09T01:38:51.328Z,0
2017-06-09T01:39:52.561Z,0
2017-06-09T01:40:53.800Z,0
2017-06-09T01:41:55.039Z,0
2017-06-09T01:42:56.299Z,0
2017-06-09T01:43:57.549Z,0
2017-06-09T01:44:58.796Z,0
2017-06-09T01:46:00.043Z,0
2017-06-09T01:47:01.315Z,0
2017-06-09T01:48:02.584Z,0
2017-06-09T01:49:03.909Z,0
2017-06-09T01:50:05.121Z,0
2017-06-09T01:51:06.452Z,0
2017-06-09T01:52:07.779Z,0
2017-06-09T01:53:09.030Z,0
2017-06-09T01:54:10.307Z,0
2017-06-09T01:55:11.528Z,0
2017-06-09T01:56:12.866Z,0
2017-06-09T01:57:14.159Z,0
2017-06-09T01:58:15.405Z,0
2017-06-09T01:59:16.636Z,0
2017-06-09T02:00:17.950Z,0
2017-06-09T02:01:19.185Z,0
2017-06-09T02:02:20.417Z,0
2017-06-09T02:03:21.694Z,0
2017-06-09T02:04:22.942Z,0
2017-06-09T02:05:24.213Z,0
2017-06-09T02:06:25.492Z,0
2017-06-09T02:07:26.718Z,0
2017-06-09T02:08:27.964Z,0
2017-06-09T02:09:29.212Z,0
2017-06-09T02:10:30.464Z,0
2017-06-09T02:11:31.723Z,0
2017-06-09T02:12:32.949Z,0
2017-06-09T02:13:34.197Z,0
2017-06-09T02:14:35.461Z,0
2017-06-09T02:15:36.710Z,0
2017-06-09T02:16:38.060Z,0
2017-06-09T02:17:39.310Z,0
2017-06-09T02:18:40.556Z,0
2017-06-09T02:19:41.884Z,0
2017-06-09T02:20:43.126Z,0
2017-06-09T02:21:44.373Z,0
2017-06-09T02:22:45.659Z,0
2017-06-09T02:23:46.865Z,0
2017-06-09T02:24:48.132Z,0
2017-06-09T02:25:49.361Z,0
2017-06-09T02:26:50.610Z,0
2017-06-09T02:27:51.936Z,4
2017-06-09T02:28:53.191Z,4
2017-06-09T02:29:54.463Z,0
2017-06-09T02:30:55.727Z,0
2017-06-09T02:31:56.969Z,4
2017-06-09T02:32:58.213Z,4
2017-06-09T02:33:59.481Z,4
2017-06-09T02:35:00.704Z,4
2017-06-09T02:36:01.949Z,8
2017-06-09T02:37:03.192Z,4
2017-06-09T02:38:04.438Z,8
2017-06-09T02:39:05.697Z,8
2017-06-09T02:40:06.962Z,8
2017-06-09T02:41:08.182Z,12
2017-06-09T02:42:09.565Z,12
2017-06-09T02:43:10.869Z,12
2017-06-09T02:44:12.230Z,16
2017-06-09T02:45:13.470Z,12
2017-06-09T02:46:14.754Z,16
2017-06-09T02:47:16.103Z,20
2017-06-09T02:48:17.350Z,24
2017-06-09T02:49:18.591Z,20
2017-06-09T02:50:19.948Z,24
2017-06-09T02:51:21.215Z,28
2017-06-09T02:52:22.435Z,32
2017-06-09T02:53:23.675Z,32
2017-06-09T02:54:24.924Z,36
2017-06-09T02:55:26.168Z,44
2017-06-09T02:56:27.458Z,52
2017-06-09T02:57:28.703Z,56
2017-06-09T02:58:29.958Z,64
2017-06-09T02:59:31.201Z,68
2017-06-09T03:00:32.462Z,76
2017-06-09T03:01:33.721Z,76
2017-06-09T03:02:34.954Z,84
2017-06-09T03:03:36.199Z,92
2017-06-09T03:04:37.448Z,96
2017-06-09T03:05:38.768Z,104
2017-06-09T03:06:39.996Z,108
2017-06-09T03:07:41.291Z,120
2017-06-09T03:08:42.532Z,128
2017-06-09T03:09:43.783Z,136
2017-06-09T03:10:45.068Z,144
2017-06-09T03:11:46.297Z,156
2017-06-09T03:12:47.538Z,168
2017-06-09T03:13:48.779Z,176
2017-06-09T03:14:50.152Z,184
2017-06-09T03:15:51.405Z,192
2017-06-09T03:16:52.674Z,204
2017-06-09T03:17:53.948Z,216
2017-06-09T03:18:55.176Z,232
2017-06-09T03:19:56.414Z,244
2017-06-09T03:20:57.657Z,260
2017-06-09T03:21:58.902Z,284
2017-06-09T03:23:00.148Z,312
2017-06-09T03:24:01.398Z,336
2017-06-09T03:25:02.645Z,364
2017-06-09T03:26:03.899Z,384
2017-06-09T03:27:05.146Z,408
2017-06-09T03:28:06.390Z,424
2017-06-09T03:29:07.633Z,440
2017-06-09T03:30:08.870Z,452
2017-06-09T03:31:10.129Z,468
2017-06-09T03:32:11.370Z,484
2017-06-09T03:33:12.601Z,496
2017-06-09T03:34:14.008Z,508
2017-06-09T03:35:15.235Z,528
2017-06-09T03:36:16.483Z,548
2017-06-09T03:37:17.730Z,572
2017-06-09T03:38:18.954Z,612
2017-06-09T03:39:20.271Z,656
2017-06-09T03:40:21.524Z,728
2017-06-09T03:41:22.771Z,808
2017-06-09T03:42:24.070Z,900
2017-06-09T03:43:25.341Z,996
2017-06-09T03:44:26.592Z,1092
2017-06-09T03:45:27.845Z,1184
2017-06-09T03:46:29.119Z,1272
2017-06-09T03:47:30.357Z,1352
2017-06-09T03:48:31.610Z,1440
2017-06-09T03:49:32.853Z,1508
2017-06-09T03:50:34.094Z,1548
2017-06-09T03:51:35.345Z,1580
2017-06-09T03:52:36.606Z,1592
2017-06-09T03:53:37.913Z,1612
2017-06-09T03:54:39.153Z,1660
2017-06-09T03:55:40.391Z,1720
2017-06-09T03:56:41.797Z,1764
2017-06-09T03:57:43.038Z,1824
2017-06-09T03:58:44.463Z,1896
2017-06-09T03:59:45.706Z,1988
2017-06-09T04:00:46.958Z,2104
2017-06-09T04:01:48.220Z,2232
2017-06-09T04:02:49.489Z,2348
2017-06-09T04:03:50.732Z,2428
2017-06-09T04:04:52.001Z,2496
2017-06-09T04:05:53.252Z,2564
2017-06-09T04:06:54.491Z,2632
2017-06-09T04:07:55.728Z,2668
2017-06-09T04:08:56.995Z,2616
2017-06-09T04:09:58.226Z,2660
2017-06-09T04:10:59.717Z,2756
2017-06-09T04:12:00.995Z,2860
2017-06-09T04:13:02.204Z,2948
2017-06-09T04:14:03.440Z,3072
2017-06-09T04:15:04.846Z,3076
2017-06-09T04:16:06.113Z,3060
2017-06-09T04:17:07.414Z,3060
2017-06-09T04:18:08.658Z,3052
2017-06-09T04:19:09.911Z,3116
2017-06-09T04:20:11.149Z,3208
2017-06-09T04:21:12.397Z,3368
2017-06-09T04:22:13.698Z,3520
2017-06-09T04:23:14.973Z,3648
2017-06-09T04:24:16.261Z,3864
2017-06-09T04:25:17.525Z,4172
2017-06-09T04:26:18.798Z,4524
2017-06-09T04:27:20.141Z,4800
2017-06-09T04:28:21.382Z,4964
2017-06-09T04:29:22.612Z,5096
2017-06-09T04:30:23.860Z,5252
2017-06-09T04:31:25.128Z,5592
2017-06-09T04:32:26.372Z,5912
2017-06-09T04:33:27.636Z,6128
2017-06-09T04:34:28.876Z,6396
2017-06-09T04:35:30.236Z,6688
2017-06-09T04:36:31.463Z,7004
2017-06-09T04:37:32.705Z,7284
2017-06-09T04:38:33.973Z,7748
2017-06-09T04:39:35.232Z,8112
2017-06-09T04:40:36.559Z,8080
2017-06-09T04:41:37.848Z,8144
2017-06-09T04:42:39.089Z,7984
2017-06-09T04:43:40.338Z,7824
2017-06-09T04:44:41.595Z,7628
2017-06-09T04:45:42.889Z,7620
2017-06-09T04:46:44.196Z,7380
2017-06-09T04:47:45.426Z,7040
2017-06-09T04:48:46.673Z,6784
2017-06-09T04:49:47.963Z,6456
2017-06-09T04:50:49.202Z,6068
2017-06-09T04:51:50.464Z,5612
2017-06-09T04:52:51.768Z,5360
2017-06-09T04:53:53.020Z,5816
2017-06-09T04:54:54.275Z,5492
2017-06-09T04:55:55.548Z,5364
2017-06-09T04:56:56.779Z,5212
2017-06-09T04:57:58.101Z,5240
2017-06-09T04:58:59.415Z,5328
2017-06-09T05:00:00.664Z,5460
2017-06-09T05:01:02.052Z,5640
2017-06-09T05:02:03.302Z,5900
2017-06-09T05:03:04.544Z,6248
2017-06-09T05:04:05.815Z,6804
2017-06-09T05:05:07.055Z,7104
2017-06-09T05:06:08.349Z,7328
2017-06-09T05:07:09.607Z,6992
2017-06-09T05:08:10.854Z,6188
2017-06-09T05:09:12.103Z,5996
2017-06-09T05:10:13.366Z,6000
2017-06-09T05:11:14.622Z,6060
2017-06-09T05:12:15.880Z,6156
2017-06-09T05:13:17.146Z,6340
2017-06-09T05:14:18.378Z,6588
2017-06-09T05:15:19.619Z,6904
2017-06-09T05:16:20.860Z,7296
2017-06-09T05:17:22.215Z,7788
2017-06-09T05:18:23.433Z,8384
2017-06-09T05:19:24.679Z,9204
2017-06-09T05:20:25.936Z,9676
2017-06-09T05:21:27.185Z,10180
2017-06-09T05:22:28.434Z,10408
2017-06-09T05:23:29.792Z,10664
2017-06-09T05:24:31.163Z,10976
2017-06-09T05:25:32.359Z,11244
2017-06-09T05:26:33.627Z,11068
2017-06-09T05:27:34.888Z,11380
2017-06-09T05:28:36.140Z,11180
2017-06-09T05:29:37.396Z,11012
2017-06-09T05:30:38.637Z,10736
2017-06-09T05:31:39.946Z,10508
2017-06-09T05:32:41.197Z,10340
2017-06-09T05:33:42.446Z,9792
2017-06-09T05:34:43.696Z,9672
2017-06-09T05:35:45.025Z,9504
2017-06-09T05:36:46.331Z,9216
2017-06-09T05:37:47.636Z,7976
2017-06-09T05:38:48.894Z,7928
2017-06-09T05:39:50.138Z,7344
2017-06-09T05:40:51.387Z,6856
2017-06-09T05:41:52.650Z,6780
2017-06-09T05:42:53.954Z,7004
2017-06-09T05:43:55.211Z,7256
2017-06-09T05:44:56.483Z,7592
2017-06-09T05:45:57.711Z,7984
2017-06-09T05:46:58.958Z,8412
2017-06-09T05:48:00.210Z,8680
2017-06-09T05:49:01.508Z,8936
2017-06-09T05:50:02.769Z,8988
2017-06-09T05:51:04.089Z,10156
2017-06-09T05:52:05.349Z,9092
2017-06-09T05:53:06.597Z,8724
2017-06-09T05:54:07.904Z,8140
2017-06-09T05:55:09.145Z,7184
2017-06-09T05:56:10.399Z,6832
2017-06-09T05:57:11.650Z,6944
2017-06-09T05:58:12.893Z,6348
2017-06-09T05:59:14.152Z,6072
2017-06-09T06:00:15.412Z,5784
2017-06-09T06:01:16.657Z,5748
2017-06-09T06:02:18.005Z,5760
2017-06-09T06:03:19.278Z,5104
2017-06-09T06:04:20.529Z,4684
2017-06-09T06:05:21.773Z,4532
2017-06-09T06:06:23.035Z,4636
2017-06-09T06:07:24.402Z,4884
2017-06-09T06:08:25.671Z,5204
2017-06-09T06:09:26.940Z,5508
2017-06-09T06:10:28.248Z,5776
2017-06-09T06:11:29.484Z,6168
2017-06-09T06:12:30.735Z,6824
2017-06-09T06:13:32.208Z,7800
2017-06-09T06:14:33.461Z,8940
2017-06-09T06:15:34.727Z,9828
2017-06-09T06:16:36.147Z,10216
2017-06-09T06:17:37.412Z,10116
2017-06-09T06:18:38.783Z,9712
2017-06-09T06:19:40.110Z,9472
2017-06-09T06:20:41.369Z,8812
2017-06-09T06:21:42.642Z,8008
2017-06-09T06:22:43.889Z,7408
2017-06-09T06:23:45.136Z,6784
2017-06-09T06:24:46.409Z,6444
2017-06-09T06:25:47.646Z,6336
2017-06-09T06:26:48.881Z,6456
2017-06-09T06:27:50.237Z,6744
2017-06-09T06:28:51.467Z,7188
2017-06-09T06:29:52.853Z,7716
2017-06-09T06:30:54.103Z,8096
2017-06-09T06:31:55.355Z,8412
2017-06-09T06:32:56.591Z,8808
2017-06-09T06:33:57.889Z,9340
2017-06-09T06:34:59.124Z,10104
2017-06-09T06:36:00.369Z,10768
2017-06-09T06:37:01.686Z,11572
2017-06-09T06:38:02.921Z,13360
2017-06-09T06:39:04.167Z,14912
2017-06-09T06:40:05.413Z,17248
2017-06-09T06:41:06.652Z,19488
2017-06-09T06:42:07.931Z,15808
2017-06-09T06:43:09.183Z,18048
2017-06-09T06:44:10.447Z,17024
2017-06-09T06:45:11.751Z,18560
2017-06-09T06:46:12.978Z,14684
2017-06-09T06:47:14.242Z,11816
2017-06-09T06:48:15.479Z,9156
2017-06-09T06:49:16.730Z,7648
2017-06-09T06:50:18.016Z,6688
2017-06-09T06:51:19.278Z,6188
2017-06-09T06:52:20.541Z,5908
2017-06-09T06:53:21.794Z,5720
2017-06-09T06:54:23.119Z,5612
2017-06-09T06:55:24.441Z,5528
2017-06-09T06:56:25.699Z,5388
2017-06-09T06:57:26.936Z,5136
2017-06-09T06:58:28.177Z,4876
2017-06-09T06:59:29.436Z,4724
2017-06-09T07:00:30.679Z,4676
2017-06-09T07:01:31.908Z,4684
2017-06-09T07:02:33.166Z,4692
2017-06-09T07:03:34.479Z,4724
2017-06-09T07:04:35.701Z,4840
2017-06-09T07:05:36.970Z,5100
2017-06-09T07:06:38.211Z,5532
2017-06-09T07:07:39.498Z,6092
2017-06-09T07:08:40.745Z,6688
2017-06-09T07:09:42.038Z,7384
2017-06-09T07:10:43.288Z,8248
2017-06-09T07:11:44.531Z,9500
2017-06-09T07:12:45.778Z,11068
2017-06-09T07:13:47.269Z,13092
2017-06-09T07:14:48.504Z,15564
2017-06-09T07:15:49.749Z,17216
2017-06-09T07:16:50.998Z,15868
2017-06-09T07:17:52.240Z,16192
2017-06-09T07:18:53.492Z,17760
2017-06-09T07:19:54.925Z,19040
2017-06-09T07:20:56.250Z,19904
2017-06-09T07:21:58.465Z,21280
2017-06-09T07:22:59.742Z,20800
2017-06-09T07:24:00.975Z,20864
2017-06-09T07:25:02.244Z,23776
2017-06-09T07:26:03.489Z,23008
2017-06-09T07:27:04.733Z,20928
2017-06-09T07:28:06.001Z,19168
2017-06-09T07:29:07.258Z,17408
2017-06-09T07:30:08.563Z,15392
2017-06-09T07:31:09.826Z,14088
2017-06-09T07:32:11.080Z,12648
2017-06-09T07:33:12.338Z,11436
2017-06-09T07:34:13.620Z,10808
2017-06-09T07:35:14.836Z,10548
2017-06-09T07:36:16.112Z,10416
2017-06-09T07:37:17.393Z,10544
2017-06-09T07:38:18.682Z,10940
2017-06-09T07:39:20.062Z,11460
2017-06-09T07:40:21.311Z,11864
2017-06-09T07:41:22.692Z,12148
2017-06-09T07:42:23.949Z,12496
2017-06-09T07:43:25.200Z,12532
2017-06-09T07:44:26.453Z,12000
2017-06-09T07:45:27.696Z,10992
2017-06-09T07:46:28.977Z,9560
2017-06-09T07:47:30.320Z,8088
2017-06-09T07:48:31.685Z,7084
2017-06-09T07:49:32.937Z,6732
2017-06-09T07:50:34.191Z,6824
2017-06-09T07:51:35.438Z,7120
2017-06-09T07:52:36.711Z,7536
2017-06-09T07:53:37.992Z,8004
2017-06-09T07:54:39.447Z,8456
2017-06-09T07:55:40.717Z,8808
2017-06-09T07:56:41.938Z,9112
2017-06-09T07:57:43.197Z,9488
2017-06-09T07:58:44.446Z,10036
2017-06-09T07:59:45.736Z,10652
2017-06-09T08:00:46.982Z,11240
2017-06-09T08:01:48.363Z,11512
2017-06-09T08:02:49.618Z,11560
2017-06-09T08:03:50.945Z,11228
2017-06-09T08:04:52.194Z,10776
2017-06-09T08:05:53.441Z,10320
2017-06-09T08:06:54.717Z,10320
2017-06-09T08:07:55.991Z,10640
2017-06-09T08:08:57.280Z,11064
2017-06-09T08:09:58.513Z,11552
2017-06-09T08:10:59.850Z,12200
2017-06-09T08:12:01.103Z,13088
2017-06-09T08:13:02.362Z,14552
2017-06-09T08:14:03.629Z,16960
2017-06-09T08:15:04.868Z,17440
2017-06-09T08:16:06.128Z,15808
2017-06-09T08:17:07.389Z,14300
2017-06-09T08:18:08.638Z,12740
2017-06-09T08:19:09.894Z,11872
2017-06-09T08:20:11.145Z,11632
2017-06-09T08:21:12.392Z,11744
2017-06-09T08:22:13.646Z,12348
2017-06-09T08:23:14.901Z,13652
2017-06-09T08:24:16.189Z,14808
2017-06-09T08:25:17.526Z,15700
2017-06-09T08:26:18.768Z,15588
2017-06-09T08:27:20.038Z,14092
2017-06-09T08:28:21.288Z,12748
2017-06-09T08:29:22.601Z,11988
2017-06-09T08:30:23.948Z,11492
2017-06-09T08:31:25.201Z,11272
2017-06-09T08:32:26.461Z,11392
2017-06-09T08:33:27.713Z,11844
2017-06-09T08:34:29.056Z,11952
2017-06-09T08:35:30.310Z,11620
2017-06-09T08:36:31.561Z,11296
2017-06-09T08:37:32.827Z,11232
2017-06-09T08:38:34.088Z,11496
2017-06-09T08:39:35.371Z,11616
2017-06-09T08:40:36.616Z,12072
2017-06-09T08:41:37.911Z,12908
2017-06-09T08:42:39.168Z,13572
2017-06-09T08:43:40.442Z,14368
2017-06-09T08:44:41.724Z,15048
2017-06-09T08:45:42.961Z,15552
2017-06-09T08:46:44.226Z,16640
2017-06-09T08:47:45.501Z,16448
2017-06-09T08:48:46.806Z,16608
2017-06-09T08:49:48.103Z,17664
2017-06-09T08:50:49.351Z,18112
2017-06-09T08:51:50.583Z,18240
2017-06-09T08:52:51.854Z,17216
2017-06-09T08:53:53.090Z,14944
2017-06-09T08:54:54.507Z,13864
2017-06-09T08:55:55.734Z,13492
2017-06-09T08:56:56.982Z,13012
2017-06-09T08:57:58.239Z,12348
2017-06-09T08:58:59.482Z,11708
2017-06-09T09:00:00.855Z,11164
2017-06-09T09:01:02.147Z,10792
2017-06-09T09:02:03.403Z,10368
2017-06-09T09:03:04.651Z,9840
2017-06-09T09:04:05.903Z,9004
2017-06-09T09:05:07.154Z,8276
2017-06-09T09:06:08.432Z,8232
2017-06-09T09:07:09.702Z,9052
2017-06-09T09:08:10.960Z,9624
2017-06-09T09:09:12.236Z,9376
2017-06-09T09:10:13.467Z,9436
2017-06-09T09:11:14.755Z,10104
2017-06-09T09:12:16.028Z,10880
2017-06-09T09:13:17.410Z,11464
2017-06-09T09:14:18.666Z,12628
2017-06-09T09:15:19.931Z,13368
2017-06-09T09:16:21.180Z,13448
2017-06-09T09:17:22.453Z,13508
2017-06-09T09:18:23.714Z,13056
2017-06-09T09:19:24.980Z,12244
2017-06-09T09:20:26.228Z,12336
2017-06-09T09:21:27.491Z,12772
2017-06-09T09:22:28.742Z,12884
2017-06-09T09:23:30.040Z,12872
2017-06-09T09:24:31.304Z,12116
2017-06-09T09:25:32.584Z,10728
2017-06-09T09:26:33.816Z,8796
2017-06-09T09:27:35.063Z,7472
2017-06-09T09:28:36.310Z,7200
2017-06-09T09:29:37.560Z,7544
2017-06-09T09:30:38.858Z,6928
2017-06-09T09:31:40.110Z,6752
2017-06-09T09:32:41.358Z,7420
2017-06-09T09:33:42.620Z,7904
2017-06-09T09:34:43.854Z,7724
2017-06-09T09:35:45.143Z,7264
2017-06-09T09:36:46.420Z,7068
2017-06-09T09:37:47.669Z,7288
2017-06-09T09:38:48.910Z,7096
2017-06-09T09:39:50.161Z,7444
2017-06-09T09:40:51.420Z,7224
2017-06-09T09:41:52.669Z,7152
2017-06-09T09:42:54.014Z,6944
2017-06-09T09:43:55.260Z,7088
2017-06-09T09:44:56.577Z,7288
2017-06-09T09:45:57.920Z,6808
2017-06-09T09:46:59.175Z,6988
2017-06-09T09:48:00.423Z,7232
2017-06-09T09:49:01.694Z,7016
2017-06-09T09:50:02.972Z,6736
2017-06-09T09:51:04.197Z,5952
2017-06-09T09:52:05.438Z,5556
2017-06-09T09:53:06.703Z,6616
2017-06-09T09:54:07.969Z,7692
2017-06-09T09:55:09.193Z,8704
2017-06-09T09:56:10.526Z,9080
2017-06-09T09:57:11.795Z,8424
2017-06-09T09:58:13.061Z,7200
2017-06-09T09:59:14.331Z,6400
2017-06-09T10:00:15.590Z,6192
2017-06-09T10:01:16.875Z,5896
2017-06-09T10:02:18.180Z,5548
2017-06-09T10:03:19.442Z,5916
2017-06-09T10:04:20.688Z,6384
2017-06-09T10:05:21.945Z,6364
2017-06-09T10:06:23.252Z,5932
2017-06-09T10:07:24.600Z,5876
2017-06-09T10:08:25.862Z,6272
2017-06-09T10:09:27.102Z,6504
2017-06-09T10:10:28.366Z,6472
2017-06-09T10:11:29.615Z,6348
2017-06-09T10:12:30.889Z,6064
2017-06-09T10:13:32.159Z,5624
2017-06-09T10:14:33.445Z,5224
2017-06-09T10:15:34.736Z,4060
2017-06-09T10:16:36.043Z,3596
2017-06-09T10:17:37.265Z,4452
2017-06-09T10:18:38.543Z,6556
2017-06-09T10:19:39.804Z,8172
2017-06-09T10:20:41.061Z,8096
2017-06-09T10:21:42.474Z,10584
2017-06-09T10:22:43.726Z,10632
2017-06-09T10:23:45.000Z,9644
2017-06-09T10:24:46.247Z,9484
2017-06-09T10:25:47.484Z,9312
2017-06-09T10:26:48.739Z,7776
2017-06-09T10:27:50.118Z,6392
2017-06-09T10:28:51.366Z,5516
2017-06-09T10:29:52.617Z,4112
2017-06-09T10:30:54.010Z,3124
2017-06-09T10:31:55.255Z,2808
2017-06-09T10:32:56.499Z,2800
2017-06-09T10:33:57.751Z,2704
2017-06-09T10:34:59.005Z,3060
2017-06-09T10:36:00.256Z,3712
2017-06-09T10:37:01.479Z,4432
2017-06-09T10:38:02.796Z,4832
2017-06-09T10:39:04.121Z,5392
2017-06-09T10:40:05.374Z,5552
2017-06-09T10:41:06.615Z,4512
2017-06-09T10:42:07.876Z,4200
2017-06-09T10:43:09.202Z,4656
2017-06-09T10:44:10.452Z,5312
2017-06-09T10:45:11.724Z,5080
2017-06-09T10:46:12.932Z,4060
2017-06-09T10:47:14.191Z,3252
2017-06-09T10:48:15.430Z,2620
2017-06-09T10:49:16.678Z,2240
2017-06-09T10:50:17.946Z,2136
2017-06-09T10:51:19.210Z,2448
2017-06-09T10:52:20.464Z,2900
2017-06-09T10:53:21.731Z,2736
2017-06-09T10:54:22.989Z,2320
2017-06-09T10:55:24.239Z,2044
2017-06-09T10:56:25.476Z,1844
2017-06-09T10:57:26.808Z,2152
2017-06-09T10:58:28.075Z,2176
2017-06-09T10:59:29.310Z,3388
2017-06-09T11:00:30.561Z,3624
2017-06-09T11:01:31.810Z,3616
2017-06-09T11:02:33.107Z,3572
2017-06-09T11:03:34.509Z,3556
2017-06-09T11:04:35.809Z,3512
2017-06-09T11:05:37.033Z,3712
2017-06-09T11:06:38.280Z,3500
2017-06-09T11:07:39.537Z,3016
2017-06-09T11:08:40.931Z,2676
2017-06-09T11:09:42.208Z,3028
2017-06-09T11:10:43.457Z,3624
2017-06-09T11:11:44.698Z,3212
2017-06-09T11:12:45.945Z,3272
2017-06-09T11:13:47.207Z,3832
2017-06-09T11:14:48.459Z,3340
2017-06-09T11:15:49.722Z,4540
2017-06-09T11:16:50.956Z,4444
2017-06-09T11:17:52.269Z,5280
2017-06-09T11:18:53.505Z,5376
2017-06-09T11:19:54.772Z,4872
2017-06-09T11:20:56.013Z,3480
2017-06-09T11:21:57.250Z,4128
2017-06-09T11:22:58.614Z,5648
2017-06-09T11:23:59.946Z,5832
2017-06-09T11:25:01.190Z,5736
2017-06-09T11:26:02.401Z,5532
2017-06-09T11:27:03.717Z,5128
2017-06-09T11:28:04.950Z,4744
2017-06-09T11:29:06.206Z,4720
2017-06-09T11:30:07.459Z,4392
2017-06-09T11:31:08.706Z,4168
2017-06-09T11:32:09.968Z,3868
2017-06-09T11:33:11.300Z,3884
2017-06-09T11:34:12.569Z,3608
2017-06-09T11:35:13.830Z,3664
2017-06-09T11:36:15.075Z,4624
2017-06-09T11:37:16.327Z,3892
2017-06-09T11:38:17.580Z,3660
2017-06-09T11:39:18.909Z,3368
2017-06-09T11:40:20.158Z,2592
2017-06-09T11:41:21.404Z,1548
2017-06-09T11:42:22.661Z,1392
2017-06-09T11:43:23.908Z,1620
2017-06-09T11:44:25.192Z,1996
2017-06-09T11:45:26.498Z,2956
2017-06-09T11:46:27.827Z,4108
2017-06-09T11:47:29.070Z,3580
2017-06-09T11:48:30.359Z,4428
2017-06-09T11:49:31.633Z,5576
2017-06-09T11:50:32.843Z,6948
2017-06-09T11:51:34.096Z,7480
2017-06-09T11:52:35.342Z,4536
2017-06-09T11:53:36.662Z,5300
2017-06-09T11:54:37.888Z,8648
2017-06-09T11:55:39.134Z,10416
2017-06-09T11:56:40.373Z,11152
2017-06-09T11:57:41.624Z,12148
2017-06-09T11:58:42.932Z,12460
2017-06-09T11:59:44.194Z,12604
2017-06-09T12:00:45.434Z,12632
2017-06-09T12:01:46.703Z,12552
2017-06-09T12:02:47.953Z,12200
2017-06-09T12:03:49.245Z,11892
2017-06-09T12:04:50.521Z,11508
2017-06-09T12:05:51.898Z,10960
2017-06-09T12:06:53.139Z,10932
2017-06-09T12:07:54.388Z,9828
2017-06-09T12:08:55.626Z,10248
2017-06-09T12:09:56.874Z,8408
2017-06-09T12:10:58.126Z,8520
2017-06-09T12:11:59.431Z,6280
2017-06-09T12:13:00.782Z,7192
2017-06-09T12:14:02.000Z,8360
2017-06-09T12:15:03.279Z,11496
2017-06-09T12:16:04.530Z,13132
2017-06-09T12:17:05.806Z,13864
2017-06-09T12:18:07.037Z,14748
2017-06-09T12:19:08.357Z,15612
2017-06-09T12:20:09.672Z,12764
2017-06-09T12:21:10.918Z,12612
2017-06-09T12:22:12.173Z,15580
2017-06-09T12:23:13.435Z,16000
2017-06-09T12:24:14.683Z,19168
2017-06-09T12:25:16.034Z,19872
2017-06-09T12:26:17.281Z,19520
2017-06-09T12:27:18.530Z,19008
2017-06-09T12:28:19.905Z,20896
2017-06-09T12:29:21.173Z,20384
2017-06-09T12:30:22.410Z,21824
2017-06-09T12:31:23.654Z,22400
2017-06-09T12:32:24.928Z,18848
2017-06-09T12:33:26.308Z,20160
2017-06-09T12:34:27.567Z,16016
2017-06-09T12:35:28.840Z,13628
2017-06-09T12:36:30.118Z,18336
2017-06-09T12:37:31.356Z,18496
2017-06-09T12:38:32.601Z,14128
2017-06-09T12:39:33.852Z,13328
2017-06-09T12:40:35.107Z,18272
2017-06-09T12:41:36.371Z,20672
2017-06-09T12:42:37.641Z,18208
2017-06-09T12:43:38.898Z,14252
2017-06-09T12:44:40.149Z,11372
2017-06-09T12:45:41.404Z,10612
2017-06-09T12:46:42.641Z,14752
2017-06-09T12:47:43.929Z,15140
2017-06-09T12:48:45.195Z,16288
2017-06-09T12:49:46.445Z,15740
2017-06-09T12:50:47.694Z,13912
2017-06-09T12:51:48.947Z,14640
2017-06-09T12:52:50.204Z,11792
2017-06-09T12:53:51.448Z,10376
2017-06-09T12:54:52.706Z,11280
2017-06-09T12:55:53.955Z,12196
2017-06-09T12:56:55.203Z,12684
2017-06-09T12:57:56.445Z,17184
2017-06-09T12:58:57.682Z,16640
2017-06-09T12:59:58.944Z,13116
2017-06-09T13:01:00.311Z,13840
2017-06-09T13:02:01.555Z,13276
2017-06-09T13:03:02.805Z,17600
2017-06-09T13:04:04.077Z,17184
2017-06-09T13:05:05.317Z,14012
2017-06-09T13:06:06.559Z,8896
2017-06-09T13:07:07.892Z,9020
2017-06-09T13:08:09.089Z,12824
2017-06-09T13:09:10.376Z,12836
2017-06-09T13:10:11.683Z,17408
2017-06-09T13:11:12.932Z,20672
2017-06-09T13:12:14.246Z,21184
2017-06-09T13:13:15.428Z,20160
2017-06-09T13:14:16.706Z,19296
2017-06-09T13:15:17.938Z,18016
2017-06-09T13:16:19.187Z,16112
2017-06-09T13:17:20.452Z,14296
2017-06-09T13:18:21.707Z,14388
2017-06-09T13:19:22.965Z,12156
2017-06-09T13:20:24.233Z,12272
2017-06-09T13:21:25.493Z,12036
2017-06-09T13:22:26.725Z,12184
2017-06-09T13:23:27.992Z,12360
2017-06-09T13:24:29.310Z,12640
2017-06-09T13:25:30.701Z,12776
2017-06-09T13:26:32.060Z,14876
2017-06-09T13:27:33.323Z,15704
2017-06-09T13:28:34.572Z,15816
2017-06-09T13:29:35.814Z,18432
2017-06-09T13:30:37.109Z,17024
2017-06-09T13:31:38.363Z,16024
2017-06-09T13:32:39.687Z,17056
2017-06-09T13:33:40.941Z,13956
2017-06-09T13:34:42.310Z,12220
2017-06-09T13:35:43.598Z,10284
2017-06-09T13:36:44.858Z,12204
2017-06-09T13:37:46.233Z,10368
2017-06-09T13:38:47.477Z,10492
2017-06-09T13:39:48.746Z,8536
2017-06-09T13:40:49.986Z,7308
2017-06-09T13:41:51.265Z,7060
2017-06-09T13:42:52.516Z,7232
2017-06-09T13:43:53.771Z,7920
2017-06-09T13:44:55.022Z,9048
2017-06-09T13:45:56.283Z,9060
2017-06-09T13:46:57.552Z,11632